LIME/BGY METAR and TAF weather

Enter ICAO airport designator
Station Type Date Time Source
LIME METAR 2019/08/19 08:20 UTC NOAA

LIME 190820Z 26004KT 220V320 9999 FEW030 25/19 Q1017 NOSIG


Station Type Date Time Source
LIME Decoded METAR 2019/08/19 08:20 UTC NOAA

Station name not available
Aug 19, 2019 - 04:20 AM EDT / 2019.08.19 0820 UTC
Wind: from the W (260 degrees) at 5 MPH (4 KT) (direction variable):0
Visibility: greater than 7 mile(s):0
Sky conditions: mostly clear
Temperature: 77 F (25 C)
Dew Point: 66 F (19 C)
Relative Humidity: 69%
Pressure (altimeter): 30.03 in. Hg (1017 hPa)
ob: LIME 190820Z 26004KT 220V320 9999 FEW030 25/19 Q1017 NOSIG
cycle: 8

Station Type Date Time Source
LIME TAF 2019/08/19 06:25 UTC NOAA

TAF LIME 190500Z 1906/2006 VRB05KT 9999 SCT070

Example: see airport list